Time;durP1;ratioP1;P1;durP2;ratioP2;P2;SDS_P1;SDS_P2;PMS_P1;PMS_P2;Temp;Humidity;BMP_temperature;BMP_pressure;BME280_temperature;BME280_humidity;BME280_pressure;Samples;Min_cycle;Max_cycle;Signal;HPM_P1;HPM_P2
2022/05/12 00:09:42;;;;;;;0.82;0.55;;;;;;;;;;20947721;28;20207;-68
2022/05/12 00:19:44;;;;;;;1.33;0.63;;;;;;;;;;20946515;28;20279;-68
2022/05/12 00:29:46;;;;;;;1.73;0.70;;;;;;;;;;20946884;28;20257;-67
2022/05/12 00:39:48;;;;;;;0.90;0.65;;;;;;;;;;20945313;28;20249;-68
2022/05/12 00:49:52;;;;;;;0.77;0.60;;;;;;;;;;20944898;28;20194;-67
2022/05/12 01:00:10;;;;;;;1.83;0.70;;;23.50;99.90;;;;;;20944392;28;20252;-67
2022/05/12 01:10:12;;;;;;;0.80;0.55;;;;;;;;;;20942912;28;20453;-67
2022/05/12 01:20:15;;;;;;;3.72;0.77;;;;;;;;;;20942434;28;20207;-67
2022/05/12 01:30:19;;;;;;;1.80;0.70;;;23.40;99.90;;;;;;20941123;28;20236;-67
2022/05/12 01:40:22;;;;;;;0.93;0.50;;;;;;;;;;20940636;28;20209;-67
2022/05/12 01:50:23;;;;;;;1.13;0.65;;;;;;;;;;20939523;28;20294;-67
2022/05/12 02:00:28;;;;;;;1.65;0.57;;;23.10;99.90;;;;;;20939443;28;20285;-67
2022/05/12 02:10:33;;;;;;;0.95;0.60;;;23.10;99.90;;;;;;20938767;28;20218;-67
2022/05/12 02:20:36;;;;;;;0.73;0.52;;;;;;;;;;20937795;28;20209;-67
2022/05/12 02:30:38;;;;;;;0.80;0.50;;;;;;;;;;20953887;28;20267;-67
2022/05/12 02:40:40;;;;;;;0.50;0.50;;;22.80;99.90;;;;;;20953194;28;20236;-67
2022/05/12 02:50:43;;;;;;;0.73;0.60;;;;;;;;;;20920049;28;20227;-67
2022/05/12 03:00:46;;;;;;;0.65;0.40;;;;;;;;;;20936520;28;20231;-67
2022/05/12 03:10:51;;;;;;;0.60;0.32;;;;;;;;;;20935681;28;20645;-67
2022/05/12 03:20:53;;;;;;;1.15;0.65;;;;;;;;;;20936112;28;20279;-67
2022/05/12 03:31:04;;;;;;;2.78;0.50;;;22.50;99.90;;;;;;20937427;28;20215;-68
2022/05/12 03:41:06;;;;;;;0.50;0.35;;;22.50;99.90;;;;;;20903018;28;20268;-67
2022/05/12 03:51:08;;;;;;;0.73;0.32;;;22.20;99.90;;;;;;20934425;28;20214;-67
2022/05/12 04:01:11;;;;;;;0.90;0.40;;;22.00;99.90;;;;;;20929692;28;20590;-66
2022/05/12 04:11:13;;;;;;;2.10;0.47;;;;;;;;;;20931991;28;20585;-67
2022/05/12 04:21:16;;;;;;;2.33;0.60;;;;;;;;;;20948100;28;20205;-67
2022/05/12 04:31:18;;;;;;;0.40;0.30;;;;;;;;;;20947005;28;20214;-67
2022/05/12 04:41:19;;;;;;;2.25;0.40;;;;;;;;;;20946150;28;20692;-67
2022/05/12 04:51:22;;;;;;;0.53;0.40;;;;;;;;;;20945506;28;20219;-68
2022/05/12 05:01:53;;;;;;;0.40;0.30;;;;;;;;;;20707508;28;20285;-67
2022/05/12 05:11:55;;;;;;;0.63;0.40;;;;;;;;;;20942273;28;20224;-68
2022/05/12 05:21:56;;;;;;;0.75;0.40;;;;;;;;;;20956553;28;20637;-68
2022/05/12 05:31:58;;;;;;;0.75;0.43;;;;;;;;;;20933289;28;20782;-68
2022/05/12 05:42:09;;;;;;;0.40;0.40;;;22.30;99.90;;;;;;20937620;28;20208;-68
2022/05/12 06:02:34;;;;;;;0.47;0.40;;;22.60;99.90;;;;;;20939261;28;20230;-68
2022/05/12 06:12:37;;;;;;;2.47;0.40;;;;;;;;;;20904380;28;20247;-68
2022/05/12 06:22:39;;;;;;;0.20;0.20;;;;;;;;;;20953498;28;20712;-68
2022/05/12 06:32:42;;;;;;;0.30;0.30;;;23.00;99.90;;;;;;20936646;28;20250;-68
2022/05/12 06:42:45;;;;;;;1.33;0.35;;;;;;;;;;20951318;28;20224;-68
2022/05/12 06:52:47;;;;;;;0.20;0.20;;;22.40;99.90;;;;;;20935493;28;20219;-68
2022/05/12 07:02:52;;;;;;;1.23;0.40;;;;;;;;;;20884312;23;20228;-68
2022/05/12 07:12:54;;;;;;;0.93;0.40;;;;;;;;;;20836222;28;20373;-68
2022/05/12 07:33:16;;;;;;;2.72;0.52;;;;;;;;;;20875828;28;20265;-67
2022/05/12 07:43:18;;;;;;;3.40;0.40;;;22.50;99.90;;;;;;20866904;28;20272;-67
2022/05/12 07:53:19;;;;;;;1.73;0.40;;;;;;;;;;20866911;28;20707;-66
2022/05/12 08:03:22;;;;;;;1.33;0.40;;;;;;;;;;20866728;28;20224;-67
2022/05/12 08:13:33;;;;;;;0.88;0.30;;;;;;;;;;20897931;28;20270;-67
2022/05/12 08:23:35;;;;;;;3.25;0.40;;;;;;;;;;20880880;28;20760;-67
2022/05/12 08:33:37;;;;;;;2.70;0.65;;;;;;;;;;20863127;28;20274;-67
2022/05/12 08:43:39;;;;;;;0.68;0.30;;;;;;;;;;20862666;28;20286;-67
2022/05/12 08:53:52;;;;;;;1.20;0.40;;;;;;;;;;20906649;28;20710;-67
2022/05/12 09:04:22;;;;;;;0.95;0.30;;;24.80;95.30;;;;;;20959961;28;20587;-67
2022/05/12 09:14:47;;;;;;;1.05;0.40;;;25.00;87.30;;;;;;20942524;28;20232;-67
2022/05/12 09:24:49;;;;;;;2.38;0.60;;;;;;;;;;20941435;28;20646;-67
2022/05/12 09:35:19;;;;;;;1.08;0.40;;;;;;;;;;20939728;28;20294;-67
2022/05/12 09:45:24;;;;;;;0.85;0.40;;;;;;;;;;20941431;28;20624;-67
2022/05/12 09:55:38;;;;;;;0.30;0.20;;;25.70;95.00;;;;;;20956139;28;20230;-67
2022/05/12 10:16:00;;;;;;;1.05;0.35;;;;;;;;;;20941781;28;20301;-67
2022/05/12 10:26:20;;;;;;;0.75;0.32;;;25.90;94.70;;;;;;20938727;28;20211;-67
2022/05/12 10:36:43;;;;;;;0.80;0.40;;;26.40;93.10;;;;;;20938252;28;20699;-67
2022/05/12 10:46:50;;;;;;;0.63;0.40;;;;;;;;;;20935877;28;20204;-67
2022/05/12 10:56:52;;;;;;;0.80;0.40;;;;;;;;;;20953028;28;20220;-68
2022/05/12 11:06:59;;;;;;;2.95;0.90;;;;;;;;;;20942500;28;20284;-67
2022/05/12 11:17:15;;;;;;;2.05;0.30;;;;;;;;;;20969270;28;20266;-67
2022/05/12 11:27:36;;;;;;;0.30;0.20;;;;;;;;;;20951588;28;20466;-67
2022/05/12 11:37:41;;;;;;;0.60;0.40;;;26.40;81.90;;;;;;20984063;28;20217;-67
2022/05/12 11:47:59;;;;;;;1.55;0.52;;;;;;;;;;20950238;28;20295;-67
2022/05/12 11:58:06;;;;;;;3.67;0.50;;;;;;;;;;20949256;28;20227;-67
2022/05/12 12:08:10;;;;;;;0.98;0.43;;;;;;;;;;20965080;28;20225;-67
2022/05/12 12:18:17;;;;;;;1.00;0.38;;;27.30;78.90;;;;;;20947626;28;20213;-67
2022/05/12 12:29:05;;;;;;;1.02;0.45;;;26.40;84.60;;;;;;20946987;28;20679;-67
2022/05/12 12:39:09;;;;;;;2.00;0.30;;;;;;;;;;20958410;28;20225;-66
2022/05/12 12:49:25;;;;;;;1.00;0.30;;;;;;;;;;20945478;28;20744;-66
2022/05/12 12:59:28;;;;;;;1.55;0.40;;;;;;;;;;20969699;22;20286;-67
2022/05/12 13:09:34;;;;;;;0.50;0.45;;;;;;;;;;20846621;28;20267;-66
2022/05/12 13:19:39;;;;;;;2.28;0.50;;;27.00;82.20;;;;;;20893933;28;20586;-67
2022/05/12 13:29:43;;;;;;;0.70;0.40;;;;;;;;;;20864179;28;20228;-66
2022/05/12 13:39:50;;;;;;;1.92;0.35;;;;;;;;;;20929085;28;20534;-66
2022/05/12 13:49:52;;;;;;;1.00;0.60;;;;;;;;;;20870413;28;20217;-66
2022/05/12 14:00:02;;;;;;;1.60;0.68;;;;;;;;;;20841094;28;20699;-68
2022/05/12 14:10:17;;;;;;;0.68;0.38;;;26.80;84.70;;;;;;20873809;28;20209;-68
2022/05/12 14:20:28;;;;;;;2.25;0.52;;;26.40;90.10;;;;;;20855952;28;20695;-66
2022/05/12 14:30:29;;;;;;;0.68;0.40;;;;;;;;;;20845301;28;20741;-68
2022/05/12 14:40:31;;;;;;;1.55;0.40;;;;;;;;;;20823186;28;20588;-68
2022/05/12 14:50:33;;;;;;;0.82;0.40;;;;;;;;;;20828234;28;20267;-68
2022/05/12 15:00:35;;;;;;;2.03;0.40;;;;;;;;;;20832162;28;20220;-68
2022/05/12 15:20:08;;;;;;;0.47;0.30;;;;;;;;;;21328376;27;20578;-67
2022/05/12 15:30:11;;;;;;;0.32;0.30;;;;;;;;;;21181521;27;20241;-67
2022/05/12 15:40:16;;;;;;;2.85;0.73;;;;;;;;;;21197929;27;20222;-67
2022/05/12 15:50:25;;;;;;;1.90;0.38;;;;;;;;;;21180546;27;20203;-67
2022/05/12 16:00:27;;;;;;;0.30;0.20;;;;;;;;;;21169205;27;20705;-67
2022/05/12 16:10:29;;;;;;;1.42;0.45;;;;;;;;;;21135184;28;20255;-67
2022/05/12 16:20:32;;;;;;;1.27;0.47;;;;;;;;;;21105705;28;20286;-67
2022/05/12 16:30:34;;;;;;;0.57;0.38;;;;;;;;;;21133754;28;20219;-67
2022/05/12 16:40:36;;;;;;;0.57;0.50;;;;;;;;;;21110569;28;20201;-67
2022/05/12 16:50:39;;;;;;;0.35;0.30;;;;;;;;;;21123785;27;20708;-67
2022/05/12 17:00:41;;;;;;;0.57;0.30;;;;;;;;;;21100290;27;20223;-66
2022/05/12 17:10:47;;;;;;;0.30;0.20;;;;;;;;;;21122703;27;20226;-68
2022/05/12 17:20:49;;;;;;;0.60;0.30;;;;;;;;;;21130310;27;20266;-68
2022/05/12 17:30:51;;;;;;;0.70;0.30;;;;;;;;;;21121547;27;20214;-68
2022/05/12 17:40:54;;;;;;;0.55;0.30;;;;;;;;;;21100741;28;20738;-68
2022/05/12 17:50:57;;;;;;;0.43;0.30;;;23.70;87.80;;;;;;21115714;28;20762;-68
2022/05/12 18:00:59;;;;;;;0.60;0.38;;;;;;;;;;21104703;27;20582;-67
2022/05/12 18:11:01;;;;;;;0.65;0.30;;;;;;;;;;21150122;27;20648;-67
2022/05/12 18:21:04;;;;;;;1.23;0.30;;;;;;;;;;21130983;27;20282;-66
2022/05/12 18:31:06;;;;;;;4.20;0.52;;;;;;;;;;21141067;27;20263;-67
2022/05/12 18:41:08;;;;;;;0.95;0.30;;;;;;;;;;21080550;27;20739;-67
2022/05/12 18:51:11;;;;;;;0.57;0.30;;;;;;;;;;21090495;27;20242;-67
2022/05/12 19:01:14;;;;;;;0.50;0.30;;;;;;;;;;21100373;28;20222;-67
2022/05/12 19:11:16;;;;;;;0.93;0.40;;;;;;;;;;21097902;28;20242;-67
2022/05/12 19:21:18;;;;;;;0.90;0.40;;;;;;;;;;21069634;27;20271;-67
2022/05/12 19:31:24;;;;;;;0.52;0.35;;;;;;;;;;21095244;28;20238;-67
2022/05/12 19:41:26;;;;;;;0.98;0.43;;;;;;;;;;21110688;28;20210;-67
2022/05/12 19:51:27;;;;;;;0.55;0.40;;;;;;;;;;21073916;28;20268;-67
2022/05/12 20:01:30;;;;;;;1.30;0.40;;;;;;;;;;21024702;28;20207;-66
2022/05/12 20:11:33;;;;;;;1.80;0.70;;;;;;;;;;21032505;28;20230;-67
2022/05/12 20:21:34;;;;;;;0.95;0.50;;;;;;;;;;21033088;28;20205;-67
2022/05/12 20:31:36;;;;;;;1.52;0.40;;;;;;;;;;21052105;27;20215;-67
2022/05/12 20:41:38;;;;;;;1.25;0.45;;;;;;;;;;21068941;27;20270;-67
2022/05/12 20:51:41;;;;;;;1.17;0.55;;;;;;;;;;21102422;27;20242;-67
2022/05/12 21:01:43;;;;;;;0.98;0.43;;;;;;;;;;21099859;28;20217;-67
2022/05/12 21:11:46;;;;;;;0.57;0.40;;;;;;;;;;21100474;27;20712;-67
2022/05/12 21:21:48;;;;;;;3.10;0.68;;;;;;;;;;21070781;28;20260;-67
2022/05/12 21:31:51;;;;;;;1.13;0.57;;;;;;;;;;21086167;28;20695;-67
2022/05/12 21:41:53;;;;;;;0.80;0.35;;;;;;;;;;21081233;27;20274;-67
2022/05/12 21:51:55;;;;;;;0.82;0.40;;;;;;;;;;21102885;28;20224;-67
2022/05/12 22:01:58;;;;;;;0.32;0.32;;;;;;;;;;21108188;28;20258;-67
2022/05/12 22:12:18;;;;;;;1.63;0.43;;;;;;;;;;21107920;28;20226;-67
2022/05/12 22:22:20;;;;;;;2.42;0.50;;;;;;;;;;21124051;28;20205;-67
2022/05/12 22:32:22;;;;;;;1.65;0.50;;;;;;;;;;21063550;28;20217;-66
2022/05/12 22:42:24;;;;;;;2.00;0.52;;;;;;;;;;21057565;28;20284;-66
2022/05/12 22:52:26;;;;;;;1.55;0.73;;;;;;;;;;21054900;28;20236;-67
2022/05/12 23:02:28;;;;;;;0.80;0.40;;;;;;;;;;21027857;28;20251;-66
2022/05/12 23:12:29;;;;;;;1.23;0.40;;;;;;;;;;21054544;28;20300;-67
2022/05/12 23:22:35;;;;;;;1.42;0.70;;;;;;;;;;21037123;28;20259;-66
2022/05/12 23:32:37;;;;;;;2.10;0.40;;;;;;;;;;21037514;28;20298;-66
2022/05/12 23:42:39;;;;;;;1.30;0.55;;;;;;;;;;21069419;28;20256;-66
2022/05/12 23:52:42;;;;;;;1.10;0.52;;;;;;;;;;21085247;28;20241;-66
